createdAt,value
2023-03-29T00:00:15.220Z,99224.50
2023-03-29T00:02:50.208Z,99231.00
2023-03-29T00:05:23.072Z,99201.38
2023-03-29T00:08:02.056Z,99250.31
2023-03-29T00:10:33.748Z,99222.44
2023-03-29T00:13:04.872Z,99211.00
2023-03-29T00:15:35.970Z,99230.53
2023-03-29T00:18:05.166Z,99218.00
2023-03-29T00:20:34.642Z,99247.94
2023-03-29T00:23:07.418Z,99233.22
2023-03-29T00:25:36.673Z,99209.88
2023-03-29T00:28:10.733Z,99224.28
2023-03-29T00:30:41.705Z,99235.91
2023-03-29T00:33:11.734Z,99259.41
2023-03-29T00:35:42.543Z,99243.53
2023-03-29T00:38:12.021Z,99233.03
2023-03-29T00:40:44.103Z,99174.53
2023-03-29T00:43:14.370Z,99231.16
2023-03-29T00:45:47.407Z,99247.22
2023-03-29T00:48:22.239Z,99226.97
2023-03-29T00:50:57.277Z,99241.00
2023-03-29T00:53:33.275Z,99240.38
2023-03-29T00:56:07.439Z,99280.50
2023-03-29T00:58:41.827Z,99042.25
2023-03-29T01:01:20.610Z,99275.19
2023-03-29T01:03:59.383Z,99224.22
2023-03-29T01:06:37.464Z,99242.16
2023-03-29T01:09:12.740Z,99277.88
2023-03-29T01:11:47.918Z,99280.09
2023-03-29T01:14:23.940Z,99291.94
2023-03-29T01:16:58.050Z,99298.69
2023-03-29T01:19:32.888Z,99309.31
2023-03-29T01:22:13.646Z,99323.47
2023-03-29T01:24:57.221Z,99273.25
2023-03-29T01:27:48.845Z,99324.91
2023-03-29T01:30:22.736Z,99313.34
2023-03-29T01:33:01.291Z,99306.41
2023-03-29T01:35:43.893Z,99275.13
2023-03-29T01:38:20.208Z,99314.25
2023-03-29T01:40:49.505Z,99339.72
2023-03-29T01:43:36.263Z,99333.78
2023-03-29T01:46:12.260Z,99342.41
2023-03-29T01:48:50.889Z,99369.78
2023-03-29T01:51:28.102Z,99317.81
2023-03-29T01:54:04.538Z,99322.25
2023-03-29T01:56:39.538Z,99359.91
2023-03-29T01:59:16.155Z,99325.06
2023-03-29T02:01:54.771Z,99379.13
2023-03-29T02:04:30.214Z,99363.94
2023-03-29T02:07:01.893Z,99289.84
2023-03-29T02:09:34.412Z,99364.81
2023-03-29T02:12:10.588Z,99312.31
2023-03-29T02:14:41.038Z,99385.72
2023-03-29T02:17:19.010Z,99390.31
2023-03-29T02:19:54.543Z,99402.19
2023-03-29T02:22:28.689Z,99397.53
2023-03-29T02:25:04.846Z,99409.03
2023-03-29T02:27:34.173Z,99418.13
2023-03-29T02:30:08.815Z,99385.66
2023-03-29T02:32:56.561Z,99424.41
2023-03-29T02:35:35.254Z,99403.09
2023-03-29T02:38:10.726Z,99427.00
2023-03-29T02:40:42.586Z,99432.09
2023-03-29T02:43:14.294Z,99443.28
2023-03-29T02:45:48.471Z,99411.44
2023-03-29T02:48:24.299Z,99401.88
2023-03-29T02:51:01.162Z,99448.31
2023-03-29T02:54:01.611Z,99375.19
2023-03-29T02:56:31.105Z,99412.34
2023-03-29T02:59:00.294Z,99441.97
2023-03-29T03:01:31.757Z,99438.25
2023-03-29T03:04:00.856Z,99387.19
2023-03-29T03:06:31.838Z,99433.56
2023-03-29T03:09:00.888Z,99396.16
2023-03-29T03:11:39.407Z,99441.59
2023-03-29T03:14:08.269Z,99440.59
2023-03-29T03:16:39.825Z,99443.22
2023-03-29T03:19:10.938Z,99408.72
2023-03-29T03:21:40.316Z,99446.69
2023-03-29T03:24:09.788Z,99402.41
2023-03-29T03:26:41.597Z,99443.03
2023-03-29T03:29:13.472Z,99450.16
2023-03-29T03:32:04.738Z,99436.59
2023-03-29T03:35:03.069Z,99451.81
2023-03-29T03:37:32.713Z,99475.63
2023-03-29T03:40:03.895Z,99472.03
2023-03-29T03:42:32.997Z,99471.53
2023-03-29T03:45:02.199Z,99461.19
2023-03-29T03:47:42.358Z,99465.09
2023-03-29T03:50:34.492Z,99461.81
2023-03-29T03:53:05.451Z,99453.53
2023-03-29T03:55:56.299Z,99482.09
2023-03-29T03:58:30.014Z,99444.97
2023-03-29T04:03:42.431Z,99426.03
2023-03-29T04:06:17.304Z,99342.16
2023-03-29T04:09:16.066Z,99429.78
2023-03-29T04:11:53.406Z,99472.41
2023-03-29T04:14:23.157Z,99462.72
2023-03-29T04:17:11.307Z,99512.09
2023-03-29T04:20:12.793Z,99406.56
2023-03-29T04:22:43.877Z,99503.69
2023-03-29T04:25:16.124Z,99501.59
2023-03-29T04:28:20.821Z,99487.56
2023-03-29T04:31:12.516Z,99527.19
2023-03-29T04:33:54.211Z,99508.47
2023-03-29T04:36:25.080Z,99524.50
2023-03-29T04:38:58.634Z,99523.53
2023-03-29T04:41:29.680Z,99541.91
2023-03-29T04:44:03.969Z,99513.56
2023-03-29T04:46:35.871Z,99511.84
2023-03-29T04:49:08.432Z,99478.97
2023-03-29T04:51:56.157Z,99549.97
2023-03-29T04:54:33.057Z,99397.97
2023-03-29T04:57:26.018Z,99533.75
2023-03-29T05:00:21.919Z,99540.28
2023-03-29T05:03:00.560Z,99334.06
2023-03-29T05:05:35.572Z,99555.56
2023-03-29T05:08:10.887Z,99547.44
2023-03-29T05:10:57.254Z,99518.47
2023-03-29T05:13:29.485Z,99546.97
2023-03-29T05:16:04.805Z,99553.50
2023-03-29T05:18:35.212Z,99498.78
2023-03-29T05:21:12.149Z,99559.31
2023-03-29T05:23:49.893Z,99575.91
2023-03-29T05:26:22.521Z,99552.94
2023-03-29T05:29:04.780Z,99555.59
2023-03-29T05:31:41.007Z,99557.50
2023-03-29T05:34:12.126Z,99557.69
2023-03-29T05:36:49.340Z,99573.78
2023-03-29T05:39:21.230Z,99569.81
2023-03-29T05:41:52.131Z,99577.03
2023-03-29T05:44:25.613Z,99545.09
2023-03-29T05:47:01.727Z,99573.25
2023-03-29T05:49:33.449Z,99565.13
2023-03-29T05:52:15.824Z,99551.56
2023-03-29T05:54:46.593Z,99576.72
2023-03-29T05:57:16.392Z,99582.31
2023-03-29T05:59:48.306Z,99589.88
2023-03-29T06:02:19.124Z,99564.94
2023-03-29T06:05:00.477Z,99511.31
2023-03-29T06:07:45.126Z,99597.16
2023-03-29T06:10:41.163Z,99415.13
2023-03-29T06:13:26.373Z,99448.34
2023-03-29T06:15:56.212Z,99539.63
2023-03-29T06:18:28.239Z,99520.44
2023-03-29T06:21:02.255Z,99614.44
2023-03-29T06:23:32.462Z,99607.00
2023-03-29T06:26:05.126Z,99616.22
2023-03-29T06:28:36.616Z,99598.56
2023-03-29T06:31:07.421Z,99622.78
2023-03-29T06:33:44.260Z,99653.34
2023-03-29T06:36:27.558Z,99640.91
2023-03-29T06:38:57.249Z,99625.31
2023-03-29T06:41:56.230Z,99617.38
2023-03-29T06:45:01.245Z,99632.09
2023-03-29T06:47:31.800Z,99657.38
2023-03-29T06:50:04.235Z,99653.16
2023-03-29T06:52:39.614Z,99631.22
2023-03-29T06:55:26.167Z,99530.88
2023-03-29T06:58:02.458Z,99552.25
2023-03-29T07:00:35.939Z,99551.09
2023-03-29T07:03:14.936Z,99670.19
2023-03-29T07:05:45.271Z,99649.19
2023-03-29T07:08:21.471Z,99669.34
2023-03-29T07:11:14.402Z,99645.91
2023-03-29T07:14:02.628Z,99696.94
2023-03-29T07:16:40.702Z,99651.56
2023-03-29T07:19:42.837Z,99604.91
2023-03-29T07:22:29.324Z,99690.59
2023-03-29T07:25:06.138Z,99685.75
2023-03-29T07:27:35.940Z,99668.72
2023-03-29T07:30:13.808Z,99677.88
2023-03-29T07:32:46.935Z,99668.03
2023-03-29T07:35:50.276Z,99704.34
2023-03-29T07:38:22.709Z,99754.53
2023-03-29T07:40:58.821Z,99712.78
2023-03-29T07:43:58.247Z,99681.78
2023-03-29T07:46:32.677Z,99571.81
2023-03-29T07:49:12.603Z,99496.72
2023-03-29T07:51:42.803Z,99757.81
2023-03-29T07:54:18.278Z,99728.00
2023-03-29T07:56:59.118Z,99761.50
2023-03-29T07:59:36.972Z,99778.25
2023-03-29T08:02:30.036Z,99521.09
2023-03-29T08:05:07.988Z,99765.69
2023-03-29T08:07:58.252Z,99777.81
2023-03-29T08:10:59.501Z,99749.03
2023-03-29T08:13:50.640Z,99788.06
2023-03-29T08:17:00.327Z,99781.41
2023-03-29T08:19:51.053Z,99641.25
2023-03-29T08:22:27.224Z,99795.91
2023-03-29T08:25:20.393Z,99769.94
2023-03-29T08:27:57.490Z,99795.16
2023-03-29T08:30:48.584Z,99758.69
2023-03-29T08:33:22.407Z,99582.44
2023-03-29T08:36:03.260Z,99592.88
2023-03-29T08:38:35.599Z,99805.00
2023-03-29T08:41:19.116Z,99786.97
2023-03-29T08:44:01.796Z,99805.38
2023-03-29T08:46:53.285Z,99781.75
2023-03-29T08:49:49.740Z,99797.94
2023-03-29T08:52:32.382Z,99814.78
2023-03-29T08:55:20.624Z,99820.41
2023-03-29T08:58:17.225Z,99787.13
2023-03-29T09:00:50.944Z,99830.94
2023-03-29T09:03:24.851Z,99840.41
2023-03-29T09:06:03.385Z,99818.44
2023-03-29T09:08:41.992Z,99844.84
2023-03-29T09:11:43.205Z,99797.16
2023-03-29T09:14:31.887Z,99839.41
2023-03-29T09:17:08.696Z,99801.75
2023-03-29T09:19:43.681Z,99845.13
2023-03-29T09:22:22.605Z,99852.69
2023-03-29T09:25:07.547Z,99795.28
2023-03-29T09:27:46.817Z,99826.28
2023-03-29T09:30:36.229Z,99819.00
2023-03-29T09:33:26.182Z,99847.00
2023-03-29T09:36:22.703Z,99717.34
2023-03-29T09:38:55.898Z,99844.34
2023-03-29T09:41:36.775Z,99869.44
2023-03-29T09:44:20.785Z,99869.03
2023-03-29T09:47:11.029Z,99881.94
2023-03-29T09:49:56.795Z,99889.53
2023-03-29T09:52:26.490Z,99891.69
2023-03-29T09:55:09.353Z,99876.19
2023-03-29T09:57:50.388Z,99849.78
2023-03-29T10:00:21.727Z,99869.50
2023-03-29T10:02:56.007Z,99893.38
2023-03-29T10:05:38.064Z,99919.50
2023-03-29T10:08:20.402Z,99909.56
2023-03-29T10:10:53.634Z,99910.63
2023-03-29T10:13:32.480Z,99838.53
2023-03-29T10:16:06.032Z,99892.03
2023-03-29T10:18:41.808Z,99923.72
2023-03-29T10:21:14.673Z,99884.22
2023-03-29T10:23:44.755Z,99929.38
2023-03-29T10:26:22.989Z,99845.59
2023-03-29T10:28:57.289Z,99949.66
2023-03-29T10:31:30.069Z,99943.50
2023-03-29T10:34:04.446Z,99944.38
2023-03-29T10:36:34.610Z,99955.31
2023-03-29T10:39:06.509Z,99935.31
2023-03-29T10:41:37.722Z,99954.03
2023-03-29T10:44:08.738Z,99916.53
2023-03-29T10:46:44.125Z,99953.78
2023-03-29T10:49:20.284Z,99936.78
2023-03-29T10:51:54.023Z,99930.22
2023-03-29T10:54:29.864Z,99956.94
2023-03-29T10:57:08.417Z,99715.84
2023-03-29T11:00:01.145Z,99745.63
2023-03-29T11:02:59.903Z,99850.66
2023-03-29T11:05:53.102Z,99893.88
2023-03-29T11:08:47.978Z,99866.81
2023-03-29T11:11:54.175Z,99826.22
2023-03-29T11:14:43.217Z,99962.91
2023-03-29T11:17:28.239Z,99714.28
2023-03-29T11:20:06.415Z,99938.84
2023-03-29T11:22:53.629Z,99988.06
2023-03-29T11:25:37.615Z,99717.25
2023-03-29T11:28:14.064Z,99894.25
2023-03-29T11:30:47.646Z,99966.59
2023-03-29T11:33:25.848Z,99975.03
2023-03-29T11:36:12.819Z,99906.28
2023-03-29T11:38:56.857Z,99980.06
2023-03-29T11:41:34.215Z,99975.59
2023-03-29T11:44:32.584Z,99892.91
2023-03-29T11:47:09.148Z,99848.44
2023-03-29T11:49:44.533Z,99883.03
2023-03-29T11:52:26.895Z,99898.38
2023-03-29T11:55:15.286Z,99826.75
2023-03-29T11:57:55.573Z,99987.16
2023-03-29T12:15:32.406Z,99890.41
2023-03-29T12:18:11.318Z,99847.06
2023-03-29T12:20:42.265Z,99939.94
2023-03-29T12:23:19.094Z,100012.78
2023-03-29T12:26:03.698Z,99922.44
2023-03-29T12:29:05.647Z,99911.22
2023-03-29T12:31:47.632Z,99887.94
2023-03-29T12:38:10.925Z,99913.69
2023-03-29T12:41:02.130Z,99998.50
2023-03-29T12:44:18.688Z,100032.50
2023-03-29T12:47:04.103Z,99977.47
2023-03-29T12:49:38.586Z,100021.63
2023-03-29T12:52:17.557Z,100032.34
2023-03-29T12:55:00.897Z,100009.34
2023-03-29T12:57:47.714Z,99964.47
2023-03-29T13:00:28.062Z,99979.81
2023-03-29T13:03:21.781Z,99812.78
2023-03-29T13:06:03.023Z,99794.28
2023-03-29T13:08:57.219Z,99884.41
2023-03-29T13:11:35.733Z,99808.97
2023-03-29T13:14:14.737Z,99886.44
2023-03-29T13:16:48.419Z,99980.69
2023-03-29T13:19:44.704Z,100045.53
2023-03-29T13:22:25.678Z,100056.94
2023-03-29T13:25:06.780Z,100045.19
2023-03-29T13:27:48.995Z,100076.44
2023-03-29T13:30:36.968Z,99863.75
2023-03-29T13:33:38.258Z,100054.56
2023-03-29T13:36:22.762Z,99816.59
2023-03-29T13:39:00.361Z,99888.28
2023-03-29T13:41:45.132Z,99971.41
2023-03-29T13:44:41.650Z,100044.38
2023-03-29T13:47:39.132Z,99945.28
2023-03-29T13:50:44.361Z,99938.97
2023-03-29T13:53:26.316Z,100034.16
2023-03-29T13:55:56.776Z,100113.19
2023-03-29T13:58:36.250Z,100091.91
2023-03-29T14:01:15.184Z,100117.38
2023-03-29T14:03:51.663Z,100106.78
2023-03-29T14:06:29.363Z,100122.16
2023-03-29T14:09:10.888Z,100070.56
2023-03-29T14:12:09.495Z,100156.09
2023-03-29T14:14:57.730Z,99937.47
2023-03-29T14:17:29.506Z,100013.78
2023-03-29T14:20:04.064Z,100129.44
2023-03-29T14:22:46.347Z,100159.09
2023-03-29T14:25:33.586Z,99901.00
2023-03-29T14:28:33.306Z,99936.03
2023-03-29T14:31:10.013Z,99991.00
2023-03-29T14:33:42.851Z,100169.84
2023-03-29T14:36:28.850Z,100039.13
2023-03-29T14:39:01.843Z,99937.47
2023-03-29T14:41:35.365Z,99936.44
2023-03-29T14:44:19.527Z,100024.59
2023-03-29T14:46:48.903Z,100195.94
2023-03-29T14:49:38.027Z,100094.66
2023-03-29T14:52:09.210Z,100098.22
2023-03-29T14:54:43.441Z,100144.19
2023-03-29T14:57:29.086Z,99943.00
2023-03-29T15:00:20.734Z,100052.84
2023-03-29T15:03:03.579Z,100095.28
2023-03-29T15:05:40.761Z,100185.34
2023-03-29T15:08:19.019Z,100179.50
2023-03-29T15:10:51.071Z,100140.78
2023-03-29T15:13:25.460Z,100211.66
2023-03-29T15:16:06.845Z,100220.97
2023-03-29T15:18:45.650Z,100163.81
2023-03-29T15:22:05.588Z,100229.06
2023-03-29T15:24:45.934Z,100116.22
2023-03-29T15:27:24.453Z,100250.50
2023-03-29T15:30:06.546Z,100240.19
2023-03-29T15:32:41.935Z,99989.53
2023-03-29T15:35:25.722Z,100001.06
2023-03-29T15:37:55.327Z,100236.72
2023-03-29T15:40:28.552Z,100240.41
2023-03-29T15:43:01.829Z,100132.91
2023-03-29T15:45:39.829Z,100277.19
2023-03-29T15:48:17.615Z,100264.09
2023-03-29T15:50:47.851Z,100242.19
2023-03-29T15:53:18.885Z,100275.97
2023-03-29T15:55:51.500Z,100255.56
2023-03-29T15:58:24.671Z,100280.03
2023-03-29T16:01:01.383Z,100286.47
2023-03-29T16:03:32.019Z,100307.16
2023-03-29T16:06:04.195Z,100291.06
2023-03-29T16:08:47.969Z,100190.72
2023-03-29T16:11:24.958Z,100291.63
2023-03-29T16:13:55.905Z,100160.91
2023-03-29T16:16:27.613Z,100268.03
2023-03-29T16:18:57.340Z,100280.56
2023-03-29T16:21:28.545Z,100240.69
2023-03-29T16:24:00.566Z,100295.66
2023-03-29T16:26:30.452Z,100064.94
2023-03-29T16:28:59.721Z,100308.50
2023-03-29T16:31:30.992Z,100327.28
2023-03-29T16:34:09.035Z,100069.38
2023-03-29T16:37:27.293Z,100300.16
2023-03-29T16:40:05.849Z,100219.41
2023-03-29T16:42:35.337Z,100209.13
2023-03-29T16:45:09.371Z,100323.91
2023-03-29T16:47:47.929Z,100268.72
2023-03-29T16:50:24.271Z,100177.94
2023-03-29T16:52:56.163Z,100271.75
2023-03-29T16:55:39.428Z,100070.69
2023-03-29T16:58:10.834Z,100142.78
2023-03-29T17:00:55.396Z,100327.06
2023-03-29T17:03:27.293Z,100282.16
2023-03-29T17:06:08.228Z,100227.84
2023-03-29T17:08:41.338Z,100100.63
2023-03-29T17:11:35.457Z,100252.84
2023-03-29T17:14:14.352Z,100347.41
2023-03-29T17:16:43.992Z,100088.22
2023-03-29T17:19:19.715Z,100353.72
2023-03-29T17:21:49.374Z,100359.22
2023-03-29T17:24:23.714Z,100372.03
2023-03-29T17:26:53.555Z,100358.44
2023-03-29T17:29:24.593Z,100364.44
2023-03-29T17:31:59.496Z,100344.09
2023-03-29T17:34:30.125Z,100375.84
2023-03-29T17:37:00.396Z,100366.66
2023-03-29T17:39:30.784Z,100384.38
2023-03-29T17:42:03.156Z,100368.03
2023-03-29T17:44:33.706Z,100383.78
2023-03-29T17:47:08.353Z,100278.06
2023-03-29T17:49:46.620Z,100363.09
2023-03-29T17:52:16.373Z,100325.16
2023-03-29T17:54:46.178Z,100383.63
2023-03-29T17:57:16.469Z,100187.72
2023-03-29T17:59:46.326Z,100324.16
2023-03-29T18:02:19.192Z,100283.94
2023-03-29T18:04:54.340Z,100396.22
2023-03-29T18:07:24.381Z,100406.97
2023-03-29T18:09:54.599Z,100400.00
2023-03-29T18:12:26.260Z,100413.94
2023-03-29T18:14:57.136Z,100375.31
2023-03-29T18:17:28.035Z,100439.38
2023-03-29T18:19:58.767Z,100370.19
2023-03-29T18:23:03.714Z,100431.75
2023-03-29T18:25:53.765Z,100343.81
2023-03-29T18:28:25.119Z,100354.75
2023-03-29T18:30:55.181Z,100397.16
2023-03-29T18:33:25.561Z,100410.97
2023-03-29T18:35:57.422Z,100202.50
2023-03-29T18:38:27.487Z,100444.44
2023-03-29T18:40:58.931Z,100434.84
2023-03-29T18:43:29.491Z,100436.31
2023-03-29T18:45:59.699Z,100435.28
2023-03-29T18:48:33.918Z,100441.34
2023-03-29T18:51:11.860Z,100324.16
2023-03-29T18:53:44.688Z,100424.75
2023-03-29T18:56:19.008Z,100440.88
2023-03-29T18:58:51.585Z,100368.50
2023-03-29T19:01:24.866Z,100443.50
2023-03-29T19:03:59.302Z,100216.41
2023-03-29T19:06:37.711Z,100457.59
2023-03-29T19:09:10.223Z,100407.53
2023-03-29T19:11:40.191Z,100359.91
2023-03-29T19:14:12.178Z,100393.31
2023-03-29T19:16:44.693Z,100468.41
2023-03-29T19:19:26.562Z,100425.00
2023-03-29T19:22:00.804Z,100435.50
2023-03-29T19:24:31.001Z,100417.97
2023-03-29T19:27:04.265Z,100452.56
2023-03-29T19:29:43.961Z,100456.94
2023-03-29T19:32:39.153Z,100458.03
2023-03-29T19:35:13.632Z,100198.59
2023-03-29T19:37:49.142Z,100214.75
2023-03-29T19:40:27.491Z,100292.59
2023-03-29T19:43:02.791Z,100383.47
2023-03-29T19:45:35.943Z,100389.19
2023-03-29T19:51:13.989Z,100306.78
2023-03-29T19:53:53.400Z,100453.00
2023-03-29T19:56:28.128Z,100254.63
2023-03-29T19:59:06.385Z,100267.91
2023-03-29T20:01:39.521Z,100283.16
2023-03-29T20:04:37.674Z,100470.56
2023-03-29T20:07:08.816Z,100492.81
2023-03-29T20:09:42.145Z,100405.25
2023-03-29T20:12:56.536Z,100365.59
2023-03-29T20:15:26.931Z,100335.50
2023-03-29T20:18:04.386Z,100221.88
2023-03-29T20:20:41.301Z,100235.19
2023-03-29T20:23:11.311Z,100290.03
2023-03-29T20:25:50.527Z,100466.88
2023-03-29T20:28:19.939Z,100442.94
2023-03-29T20:30:51.551Z,100435.03
2023-03-29T20:33:21.327Z,100431.47
2023-03-29T20:35:53.276Z,100463.00
2023-03-29T20:38:22.932Z,100483.28
2023-03-29T20:40:53.918Z,100491.38
2023-03-29T20:43:26.095Z,100443.44
2023-03-29T20:46:00.391Z,100499.94
2023-03-29T20:48:33.390Z,100493.97
2023-03-29T20:51:10.388Z,100488.63
2023-03-29T20:53:43.059Z,100489.75
2023-03-29T20:56:14.857Z,100487.47
2023-03-29T20:58:44.519Z,100492.75
2023-03-29T21:01:14.918Z,100441.06
2023-03-29T21:04:05.602Z,100470.06
2023-03-29T21:06:45.727Z,100412.06
2023-03-29T21:09:16.148Z,100336.66
2023-03-29T21:11:48.449Z,100468.72
2023-03-29T21:14:21.319Z,100499.19
2023-03-29T21:16:50.709Z,100503.63
2023-03-29T21:19:20.433Z,100506.09
2023-03-29T21:21:52.184Z,100464.88
2023-03-29T21:24:22.536Z,100438.50
2023-03-29T21:26:53.012Z,100507.28
2023-03-29T21:29:24.730Z,100497.41
2023-03-29T21:31:56.805Z,100507.31
2023-03-29T21:34:28.792Z,100450.72
2023-03-29T21:36:58.538Z,100503.47
2023-03-29T21:39:30.308Z,100501.75
2023-03-29T21:42:03.361Z,100510.69
2023-03-29T21:44:34.333Z,100505.44
2023-03-29T21:47:03.889Z,100497.97
2023-03-29T21:49:32.953Z,100493.28
2023-03-29T21:52:04.893Z,100507.28
2023-03-29T21:54:36.256Z,100501.94
2023-03-29T21:57:07.282Z,100507.78
2023-03-29T21:59:37.471Z,100527.22
2023-03-29T22:02:07.090Z,100303.28
2023-03-29T22:04:37.492Z,100475.94
2023-03-29T22:07:08.445Z,100510.13
2023-03-29T22:09:37.726Z,100506.91
2023-03-29T22:12:08.470Z,100526.41
2023-03-29T22:14:37.647Z,100513.97
2023-03-29T22:17:07.477Z,100522.34
2023-03-29T22:19:39.381Z,100527.59
2023-03-29T22:22:15.400Z,100499.31
2023-03-29T22:24:45.148Z,100535.16
2023-03-29T22:27:15.709Z,100523.25
2023-03-29T22:29:45.678Z,100510.34
2023-03-29T22:32:14.910Z,100537.19
2023-03-29T22:34:44.116Z,100516.63
2023-03-29T22:37:13.339Z,100519.50
2023-03-29T22:39:42.677Z,100535.72
2023-03-29T22:42:13.269Z,100507.38
2023-03-29T22:44:44.312Z,100517.94
2023-03-29T22:47:13.875Z,100541.97
2023-03-29T22:49:43.498Z,100521.09
2023-03-29T22:52:12.613Z,100505.16
2023-03-29T22:54:46.007Z,100522.63
2023-03-29T22:57:16.004Z,100530.31
2023-03-29T22:59:49.028Z,100520.38
2023-03-29T23:02:18.678Z,100497.41
2023-03-29T23:04:48.305Z,100517.03
2023-03-29T23:07:17.864Z,100530.56
2023-03-29T23:09:47.998Z,100489.06
2023-03-29T23:12:17.905Z,100509.50
2023-03-29T23:14:48.962Z,100452.78
2023-03-29T23:17:24.883Z,100489.72
2023-03-29T23:19:54.721Z,100534.00
2023-03-29T23:22:24.500Z,100530.38
2023-03-29T23:24:56.825Z,100510.75
2023-03-29T23:27:26.383Z,100534.16
2023-03-29T23:30:01.687Z,100532.94
2023-03-29T23:32:31.238Z,100534.50
2023-03-29T23:35:01.415Z,100518.38
2023-03-29T23:37:34.048Z,100494.59
2023-03-29T23:40:08.280Z,100514.34
2023-03-29T23:42:39.180Z,100518.75
2023-03-29T23:45:15.717Z,100528.22
2023-03-29T23:47:45.754Z,100534.31
2023-03-29T23:50:18.389Z,100520.84
2023-03-29T23:52:49.804Z,100496.94
2023-03-29T23:55:21.921Z,100548.63
2023-03-29T23:57:52.624Z,100505.13
